Time;durP1;ratioP1;P1;durP2;ratioP2;P2;SDS_P1;SDS_P2;PMS_P1;PMS_P2;Temp;Humidity;BMP_temperature;BMP_pressure;BME280_temperature;BME280_humidity;BME280_pressure;Samples;Min_cycle;Max_cycle;Signal;HPM_P1;HPM_P2
2022/05/27 00:01:43;;;;;;;;;;;16.20;99.90;;;;;;5089199;28;19913;-75
2022/05/27 00:04:11;;;;;;;;;;;16.20;99.90;;;;;;5086225;28;19958;-76
2022/05/27 00:06:37;;;;;;;;;;;16.10;99.90;;;;;;5077573;28;19921;-76
2022/05/27 00:09:05;;;;;;;;;;;16.10;99.90;;;;;;5075286;28;19909;-75
2022/05/27 00:11:31;;;;;;;;;;;16.10;99.90;;;;;;5088092;28;19909;-76
2022/05/27 00:14:05;;;;;;;;;;;16.00;99.90;;;;;;5075682;28;19912;-81
2022/05/27 00:16:59;;;;;;;;;;;16.00;99.90;;;;;;5074861;28;19909;-81
2022/05/27 00:19:41;;;;;;;;;;;15.90;99.90;;;;;;5088015;28;19912;-81
2022/05/27 00:22:11;;;;;;;;;;;15.90;99.90;;;;;;5087608;28;19920;-81
2022/05/27 00:24:41;;;;;;;;;;;15.80;99.90;;;;;;5088400;28;19912;-82
2022/05/27 00:27:10;;;;;;;;;;;15.80;99.90;;;;;;5087226;28;19912;-81
2022/05/27 00:30:11;;;;;;;;;;;15.80;99.90;;;;;;5088325;28;19912;-80
2022/05/27 00:32:42;;;;;;;;;;;15.70;99.90;;;;;;5088264;28;20372;-80
2022/05/27 00:35:35;;;;;;;;;;;15.50;99.90;;;;;;5086881;28;19943;-81
2022/05/27 00:38:29;;;;;;;;;;;15.50;99.90;;;;;;5072503;28;19916;-81
2022/05/27 00:41:23;;;;;;;;;;;15.40;99.90;;;;;;5074598;28;19909;-80
2022/05/27 00:43:53;;;;;;;;;;;15.30;99.90;;;;;;5061547;28;19908;-81
2022/05/27 00:46:31;;;;;;;;;;;15.20;99.90;;;;;;5083562;28;19991;-81
2022/05/27 00:49:07;;;;;;;;;;;15.10;99.90;;;;;;5087961;28;19909;-81
2022/05/27 00:51:38;;;;;;;;;;;15.00;99.90;;;;;;5068527;28;19908;-80
2022/05/27 00:54:10;;;;;;;;;;;15.00;99.90;;;;;;5086813;28;20398;-81
2022/05/27 00:56:50;;;;;;;;;;;14.90;99.90;;;;;;5069980;28;19908;-80
2022/05/27 00:59:35;;;;;;;;;;;14.90;99.90;;;;;;5084878;28;19994;-80
2022/05/27 01:02:17;;;;;;;;;;;14.80;99.90;;;;;;5088383;28;19909;-81
2022/05/27 01:05:01;;;;;;;;;;;14.70;99.90;;;;;;5075837;28;19908;-81
2022/05/27 01:07:35;;;;;;;;;;;14.70;99.90;;;;;;5094418;28;20352;-81
2022/05/27 01:10:14;;;;;;;;;;;14.60;99.90;;;;;;5074287;28;19913;-81
2022/05/27 01:12:53;;;;;;;;;;;14.60;99.90;;;;;;5069636;28;19911;-81
2022/05/27 01:15:29;;;;;;;;;;;14.60;99.90;;;;;;5092166;28;19932;-77
2022/05/27 01:17:58;;;;;;;;;;;14.50;99.90;;;;;;5087927;28;20003;-76
2022/05/27 01:20:33;;;;;;;;;;;14.50;99.90;;;;;;5074451;28;19919;-76
2022/05/27 01:23:04;;;;;;;;;;;14.50;99.90;;;;;;5088315;28;20001;-76
2022/05/27 01:25:50;;;;;;;;;;;14.50;99.90;;;;;;5077521;28;19999;-76
2022/05/27 01:28:42;;;;;;;;;;;14.40;99.90;;;;;;5032139;28;19941;-76
2022/05/27 01:31:23;;;;;;;;;;;14.40;99.90;;;;;;5037829;28;19975;-76
2022/05/27 01:34:14;;;;;;;;;;;14.40;99.90;;;;;;5037494;28;19921;-76
2022/05/27 01:36:39;;;;;;;;;;;14.40;99.90;;;;;;5042897;28;19921;-76
2022/05/27 01:39:41;;;;;;;;;;;14.30;1.00;;;;;;5035684;28;19913;-76
2022/05/27 01:42:07;;;;;;;;;;;14.30;1.00;;;;;;5049482;28;19913;-76
2022/05/27 01:45:02;;;;;;;;;;;14.30;1.00;;;;;;5045930;28;20352;-76
2022/05/27 01:47:40;;;;;;;;;;;14.20;1.00;;;;;;5003012;28;20311;-76
2022/05/27 01:50:15;;;;;;;;;;;14.20;1.00;;;;;;5010403;28;20459;-77
2022/05/27 01:53:00;;;;;;;;;;;14.20;1.00;;;;;;4996884;28;19910;-76
2022/05/27 01:55:47;;;;;;;;;;;14.20;1.00;;;;;;5003847;28;20256;-76
2022/05/27 01:58:16;;;;;;;;;;;14.20;1.00;;;;;;5009557;28;19941;-76
2022/05/27 02:00:53;;;;;;;;;;;14.20;1.00;;;;;;5005694;28;19996;-80
2022/05/27 02:03:29;;;;;;;;;;;14.20;1.00;;;;;;5002584;28;19913;-80
2022/05/27 02:06:02;;;;;;;;;;;14.20;1.00;;;;;;5003993;28;20019;-81
2022/05/27 02:08:49;;;;;;;;;;;14.20;1.00;;;;;;5002049;28;19909;-81
2022/05/27 02:11:35;;;;;;;;;;;14.30;1.00;;;;;;5000199;28;20484;-80
2022/05/27 02:14:08;;;;;;;;;;;14.40;1.00;;;;;;4996094;28;19910;-80
2022/05/27 02:16:59;;;;;;;;;;;14.40;1.00;;;;;;4994696;28;19921;-81
2022/05/27 02:19:44;;;;;;;;;;;14.50;1.00;;;;;;5012155;28;20055;-80
2022/05/27 02:22:14;;;;;;;;;;;14.60;1.00;;;;;;5003094;28;19910;-80
2022/05/27 02:24:57;;;;;;;;;;;14.60;1.00;;;;;;5041665;28;20371;-80
2022/05/27 02:27:49;;;;;;;;;;;14.60;1.00;;;;;;5048281;28;19961;-81
2022/05/27 02:30:16;;;;;;;;;;;14.60;1.00;;;;;;5032032;28;20435;-76
2022/05/27 02:32:48;;;;;;;;;;;14.60;1.00;;;;;;5021757;28;20245;-77
2022/05/27 02:35:22;;;;;;;;;;;14.60;1.00;;;;;;5022027;28;19909;-76
2022/05/27 02:37:55;;;;;;;;;;;14.60;1.00;;;;;;5014801;28;20004;-76
2022/05/27 02:40:23;;;;;;;;;;;14.60;1.00;;;;;;5016674;28;19920;-76
2022/05/27 02:42:59;;;;;;;;;;;14.70;1.00;;;;;;5024021;28;19910;-77
2022/05/27 02:45:31;;;;;;;;;;;14.70;1.00;;;;;;5022048;28;20297;-76
2022/05/27 02:48:11;;;;;;;;;;;14.80;1.00;;;;;;5023814;28;19909;-76
2022/05/27 02:50:41;;;;;;;;;;;14.90;99.90;;;;;;5033807;28;20349;-77
2022/05/27 02:53:12;;;;;;;;;;;14.90;99.90;;;;;;5021530;28;20419;-77
2022/05/27 02:55:41;;;;;;;;;;;15.00;99.90;;;;;;5027332;28;20399;-76
2022/05/27 02:58:17;;;;;;;;;;;15.00;99.90;;;;;;5044742;28;19972;-76
2022/05/27 03:00:44;;;;;;;;;;;15.10;99.90;;;;;;5015440;28;19909;-76
2022/05/27 03:03:17;;;;;;;;;;;15.10;99.90;;;;;;5014777;28;19909;-76
2022/05/27 03:06:06;;;;;;;;;;;15.20;99.90;;;;;;5014885;28;19932;-76
2022/05/27 03:08:52;;;;;;;;;;;15.10;99.90;;;;;;5047607;28;20331;-77
2022/05/27 03:11:29;;;;;;;;;;;15.10;99.90;;;;;;5010800;28;20348;-77
2022/05/27 03:13:57;;;;;;;;;;;15.10;99.90;;;;;;4995243;28;19909;-76
2022/05/27 03:16:59;;;;;;;;;;;15.20;99.90;;;;;;5013920;28;19909;-80
2022/05/27 03:19:41;;;;;;;;;;;15.20;99.90;;;;;;5014181;28;19914;-80
2022/05/27 03:22:23;;;;;;;;;;;15.10;99.90;;;;;;5014222;28;19916;-80
2022/05/27 03:25:12;;;;;;;;;;;15.00;99.90;;;;;;5014175;28;20004;-80
2022/05/27 03:30:49;;;;;;;;;;;14.80;99.90;;;;;;5001097;28;20341;-77
2022/05/27 03:33:31;;;;;;;;;;;14.80;99.90;;;;;;5014355;28;19916;-76
2022/05/27 03:36:01;;;;;;;;;;;14.70;1.00;;;;;;5014145;28;19909;-76
2022/05/27 03:38:55;;;;;;;;;;;14.60;1.00;;;;;;4994304;28;20119;-76
2022/05/27 03:41:41;;;;;;;;;;;14.60;1.00;;;;;;4964801;28;19977;-76
2022/05/27 03:44:18;;;;;;;;;;;14.50;1.00;;;;;;4955006;29;19961;-76
2022/05/27 03:46:54;;;;;;;;;;;14.60;1.00;;;;;;4989644;28;19942;-80
2022/05/27 03:49:29;;;;;;;;;;;14.60;1.00;;;;;;5021349;28;20396;-80
2022/05/27 03:52:07;;;;;;;;;;;14.50;1.00;;;;;;5015664;28;19909;-80
2022/05/27 03:54:35;;;;;;;;;;;14.50;1.00;;;;;;5013675;28;20431;-79
2022/05/27 03:57:17;;;;;;;;;;;14.60;1.00;;;;;;5013708;28;19916;-82
2022/05/27 03:59:47;;;;;;;;;;;14.50;1.00;;;;;;5015427;28;20391;-82
2022/05/27 04:02:13;;;;;;;;;;;14.50;1.00;;;;;;5024733;28;20422;-77
2022/05/27 04:04:41;;;;;;;;;;;14.50;1.00;;;;;;5029282;28;19909;-76
2022/05/27 04:07:07;;;;;;;;;;;14.50;1.00;;;;;;5033431;28;19909;-76
2022/05/27 04:09:47;;;;;;;;;;;14.50;1.00;;;;;;5017883;28;19932;-76
2022/05/27 04:12:19;;;;;;;;;;;14.60;1.00;;;;;;5024914;28;19952;-77
2022/05/27 04:14:59;;;;;;;;;;;14.60;1.00;;;;;;5014971;28;20342;-76
2022/05/27 04:17:30;;;;;;;;;;;14.60;1.00;;;;;;5035162;28;20272;-80
2022/05/27 04:20:07;;;;;;;;;;;14.70;1.00;;;;;;5074890;28;20304;-81
2022/05/27 04:22:33;;;;;;;;;;;14.70;1.00;;;;;;5063449;28;20351;-81
2022/05/27 04:25:17;;;;;;;;;;;14.70;1.00;;;;;;5067176;28;19909;-81
2022/05/27 04:27:43;;;;;;;;;;;14.70;1.00;;;;;;5080471;28;20011;-80
2022/05/27 04:30:12;;;;;;;;;;;14.70;1.00;;;;;;5083106;28;19966;-80
2022/05/27 04:32:38;;;;;;;;;;;14.80;1.00;;;;;;5094042;28;19919;-81
2022/05/27 04:35:04;;;;;;;;;;;14.80;1.00;;;;;;5082188;28;19909;-81
2022/05/27 04:37:41;;;;;;;;;;;14.90;1.00;;;;;;5079238;28;20306;-81
2022/05/27 04:40:17;;;;;;;;;;;14.90;1.00;;;;;;5094651;28;19916;-81
2022/05/27 04:42:47;;;;;;;;;;;15.00;1.00;;;;;;5070002;28;19908;-80
2022/05/27 04:45:13;;;;;;;;;;;15.10;1.00;;;;;;5080024;28;19998;-77
2022/05/27 04:50:41;;;;;;;;;;;15.30;99.90;;;;;;5074110;28;19915;-81
2022/05/27 04:53:23;;;;;;;;;;;15.50;99.90;;;;;;5078964;28;19912;-81
2022/05/27 04:55:59;;;;;;;;;;;15.60;99.90;;;;;;5072640;28;19917;-81
2022/05/27 04:58:47;;;;;;;;;;;15.80;99.90;;;;;;5087786;28;19912;-81
2022/05/27 05:01:23;;;;;;;;;;;15.90;99.90;;;;;;5074307;28;19909;-81
2022/05/27 05:03:59;;;;;;;;;;;16.00;99.90;;;;;;5073908;28;19915;-82
2022/05/27 05:07:00;;;;;;;;;;;16.10;99.90;;;;;;5074163;28;19909;-81
2022/05/27 05:09:26;;;;;;;;;;;16.20;99.90;;;;;;5086483;28;19931;-81
2022/05/27 05:11:53;;;;;;;;;;;16.20;99.90;;;;;;5082842;28;20343;-82
2022/05/27 05:14:23;;;;;;;;;;;16.40;99.90;;;;;;5093659;28;19909;-82
2022/05/27 05:16:49;;;;;;;;;;;16.50;99.90;;;;;;5094725;28;19909;-80
2022/05/27 05:25:16;;;;;;;;;;;16.60;99.90;;;;;;5074634;28;20371;-87
2022/05/27 05:30:47;;;;;;;;;;;16.80;99.90;;;;;;5073434;28;19920;-80
2022/05/27 05:33:29;;;;;;;;;;;16.90;99.90;;;;;;5073892;28;20038;-81
2022/05/27 05:36:05;;;;;;;;;;;16.80;99.90;;;;;;5089081;28;19993;-80
2022/05/27 05:38:31;;;;;;;;;;;16.90;99.90;;;;;;5053667;28;19927;-79
2022/05/27 05:40:59;;;;;;;;;;;16.80;99.90;;;;;;5043284;28;19912;-81
2022/05/27 05:43:35;;;;;;;;;;;16.90;99.90;;;;;;5062220;28;19912;-78
2022/05/27 05:46:05;;;;;;;;;;;17.00;99.90;;;;;;5073846;28;19909;-79
2022/05/27 05:48:31;;;;;;;;;;;17.00;99.90;;;;;;5073829;28;19948;-79
2022/05/27 05:50:59;;;;;;;;;;;17.10;99.90;;;;;;5069854;28;19909;-78
2022/05/27 05:53:47;;;;;;;;;;;17.30;99.90;;;;;;5070082;28;19961;-79
2022/05/27 05:56:17;;;;;;;;;;;17.40;99.90;;;;;;5073715;28;19908;-78
2022/05/27 05:59:00;;;;;;;;;;;17.40;99.90;;;;;;5066441;28;19912;-78
2022/05/27 06:01:26;;;;;;;;;;;17.50;99.90;;;;;;5078204;28;19915;-79
2022/05/27 06:04:05;;;;;;;;;;;17.40;99.90;;;;;;5074005;28;19908;-78
2022/05/27 06:06:36;;;;;;;;;;;17.50;99.90;;;;;;5077839;28;19909;-79
2022/05/27 06:09:25;;;;;;;;;;;17.60;99.90;;;;;;5089233;28;20034;-80
2022/05/27 06:12:06;;;;;;;;;;;17.60;99.90;;;;;;5082092;28;19915;-80
2022/05/27 06:14:36;;;;;;;;;;;17.50;99.90;;;;;;5079727;28;19915;-79
2022/05/27 06:17:05;;;;;;;;;;;17.50;99.90;;;;;;5093868;28;20354;-78
2022/05/27 06:19:47;;;;;;;;;;;17.60;99.90;;;;;;5075742;28;19958;-78
2022/05/27 06:22:35;;;;;;;;;;;17.70;99.90;;;;;;5073572;28;19908;-79
2022/05/27 06:25:06;;;;;;;;;;;17.60;99.90;;;;;;5054732;28;19915;-78
2022/05/27 06:27:41;;;;;;;;;;;17.60;99.90;;;;;;5060241;28;19935;-79
2022/05/27 06:39:24;;;;;;;;;;;17.50;99.90;;;;;;4995721;28;20364;-78
2022/05/27 06:42:09;;;;;;;;;;;17.50;99.90;;;;;;4996114;28;19917;-78
2022/05/27 06:44:41;;;;;;;;;;;17.60;99.90;;;;;;5009983;28;19963;-77
2022/05/27 06:47:13;;;;;;;;;;;17.70;99.90;;;;;;4998190;28;20278;-78
2022/05/27 06:49:48;;;;;;;;;;;17.70;99.90;;;;;;4995451;28;20400;-78
2022/05/27 06:52:18;;;;;;;;;;;17.70;99.90;;;;;;4991638;28;20000;-78
2022/05/27 06:54:47;;;;;;;;;;;17.80;99.90;;;;;;4992739;28;19917;-79
2022/05/27 06:57:23;;;;;;;;;;;17.80;99.90;;;;;;4972679;28;20365;-79
2022/05/27 06:59:53;;;;;;;;;;;17.90;99.90;;;;;;4994731;28;19914;-79
2022/05/27 07:02:22;;;;;;;;;;;17.90;99.90;;;;;;4995432;28;19910;-72
2022/05/27 07:04:48;;;;;;;;;;;18.00;99.90;;;;;;5076952;28;19919;-71
2022/05/27 07:07:13;;;;;;;;;;;17.80;99.90;;;;;;5092207;28;20375;-71
2022/05/27 07:09:39;;;;;;;;;;;17.90;99.90;;;;;;5069639;28;19955;-72
2022/05/27 07:12:08;;;;;;;;;;;18.10;99.90;;;;;;5075845;28;20317;-72
2022/05/27 07:17:36;;;;;;;;;;;18.10;99.90;;;;;;5076243;28;19954;-80
2022/05/27 07:20:03;;;;;;;;;;;18.10;99.90;;;;;;5065537;28;20430;-79
2022/05/27 07:22:29;;;;;;;;;;;18.10;99.90;;;;;;5066497;28;19974;-80
2022/05/27 07:25:13;;;;;;;;;;;18.30;99.90;;;;;;5084808;28;20355;-78
2022/05/27 07:27:39;;;;;;;;;;;18.40;99.90;;;;;;5086812;28;20007;-80
2022/05/27 07:30:05;;;;;;;;;;;18.60;99.90;;;;;;5075561;28;19916;-79
2022/05/27 07:32:43;;;;;;;;;;;18.60;99.90;;;;;;5081320;28;19909;-79
2022/05/27 07:35:18;;;;;;;;;;;18.60;99.90;;;;;;5076102;28;19999;-85
2022/05/27 07:37:59;;;;;;;;;;;18.70;99.90;;;;;;5069569;28;19939;-86
2022/05/27 07:40:25;;;;;;;;;;;18.70;99.90;;;;;;5093925;28;19916;-85
2022/05/27 07:42:53;;;;;;;;;;;18.60;99.90;;;;;;5076786;28;20306;-77
2022/05/27 07:45:37;;;;;;;;;;;18.70;99.90;;;;;;5088816;28;19912;-79
2022/05/27 07:48:17;;;;;;;;;;;18.70;99.90;;;;;;5080355;28;19912;-79
2022/05/27 07:50:47;;;;;;;;;;;18.80;99.90;;;;;;5055760;28;19909;-77
2022/05/27 07:53:30;;;;;;;;;;;19.10;99.90;;;;;;5057352;28;19954;-78
2022/05/27 07:55:56;;;;;;;;;;;19.30;99.90;;;;;;5093460;28;19915;-77
2022/05/27 07:58:29;;;;;;;;;;;19.40;99.90;;;;;;5078735;28;20271;-78
2022/05/27 08:00:55;;;;;;;;;;;19.50;99.90;;;;;;5079756;28;19916;-77
2022/05/27 08:13:05;;;;;;;;;;;20.10;99.90;;;;;;5069652;28;19915;-84
2022/05/27 08:16:05;;;;;;;;;;;19.70;99.90;;;;;;5099439;28;19951;-85
2022/05/27 08:18:47;;;;;;;;;;;19.70;99.90;;;;;;5075294;28;19982;-81
2022/05/27 08:21:13;;;;;;;;;;;19.50;99.90;;;;;;5087498;28;19912;-81
2022/05/27 08:23:59;;;;;;;;;;;19.30;99.90;;;;;;5087323;28;19912;-80
2022/05/27 08:26:47;;;;;;;;;;;19.30;99.90;;;;;;5090246;28;19917;-80
2022/05/27 08:29:13;;;;;;;;;;;19.50;99.90;;;;;;5081598;28;19912;-80
2022/05/27 08:31:39;;;;;;;;;;;19.40;99.90;;;;;;5076567;28;19912;-81
2022/05/27 08:40:01;;;;;;;;;;;19.80;99.90;;;;;;5082500;28;19999;-80
2022/05/27 08:42:56;;;;;;;;;;;19.70;99.90;;;;;;5067713;28;19961;-80
2022/05/27 08:45:26;;;;;;;;;;;20.00;99.90;;;;;;5037736;28;20289;-80
2022/05/27 08:47:59;;;;;;;;;;;20.20;99.90;;;;;;5043235;28;20292;-76
2022/05/27 08:50:25;;;;;;;;;;;20.40;99.90;;;;;;5042601;28;20007;-75
2022/05/27 08:52:55;;;;;;;;;;;20.40;99.90;;;;;;5032428;28;19948;-75
2022/05/27 09:00:56;;;;;;;;;;;20.50;99.90;;;;;;5032175;28;20402;-75
2022/05/27 09:03:22;;;;;;;;;;;20.30;99.90;;;;;;5045304;28;19910;-76
2022/05/27 09:05:59;;;;;;;;;;;20.20;99.90;;;;;;5014345;28;19909;-75
2022/05/27 09:08:25;;;;;;;;;;;20.20;99.90;;;;;;5024612;28;20463;-75
2022/05/27 09:10:59;;;;;;;;;;;20.10;99.90;;;;;;5045685;28;19909;-75
2022/05/27 09:13:34;;;;;;;;;;;20.00;99.90;;;;;;5017174;28;20318;-75
2022/05/27 09:16:23;;;;;;;;;;;19.80;99.90;;;;;;5028876;28;19908;-76
2022/05/27 09:19:11;;;;;;;;;;;19.80;99.90;;;;;;5032304;28;20009;-80
2022/05/27 09:22:14;;;;;;;;;;;19.70;99.90;;;;;;5052836;28;20015;-80
2022/05/27 09:25:03;;;;;;;;;;;19.60;99.90;;;;;;5032146;28;19910;-80
2022/05/27 09:27:29;;;;;;;;;;;19.40;99.90;;;;;;5045247;28;19913;-80
2022/05/27 09:30:18;;;;;;;;;;;19.30;99.90;;;;;;5042167;28;20414;-80
2022/05/27 09:33:01;;;;;;;;;;;19.20;99.90;;;;;;5032048;28;19909;-78
2022/05/27 09:35:59;;;;;;;;;;;19.40;99.90;;;;;;5032153;28;19909;-75
2022/05/27 09:38:29;;;;;;;;;;;19.60;99.90;;;;;;4973143;28;19953;-75
2022/05/27 09:40:55;;;;;;;;;;;19.90;99.90;;;;;;4979798;28;19917;-75
2022/05/27 09:43:28;;;;;;;;;;;20.20;99.90;;;;;;4992545;28;20275;-76
2022/05/27 09:45:58;;;;;;;;;;;20.20;99.90;;;;;;4985347;28;19915;-76
2022/05/27 09:48:35;;;;;;;;;;;20.30;99.90;;;;;;4988163;28;20404;-79
2022/05/27 09:51:14;;;;;;;;;;;20.30;99.90;;;;;;4992329;28;19914;-80
2022/05/27 09:53:56;;;;;;;;;;;20.70;99.90;;;;;;4987725;28;20333;-80
2022/05/27 09:56:43;;;;;;;;;;;20.90;99.90;;;;;;4972960;28;19913;-80
2022/05/27 09:59:41;;;;;;;;;;;20.90;99.90;;;;;;4995863;28;20715;-81
2022/05/27 10:02:17;;;;;;;;;;;21.40;99.90;;;;;;5015920;28;19913;-80
2022/05/27 10:04:50;;;;;;;;;;;21.20;99.90;;;;;;5002603;28;19963;-75
2022/05/27 10:07:22;;;;;;;;;;;21.60;99.90;;;;;;5006227;28;19909;-75
2022/05/27 10:09:48;;;;;;;;;;;21.50;99.90;;;;;;5011166;28;19973;-75
2022/05/27 10:12:26;;;;;;;;;;;21.40;99.90;;;;;;5007317;28;20309;-75
2022/05/27 10:14:52;;;;;;;;;;;21.30;99.90;;;;;;5079040;28;19908;-75
2022/05/27 10:17:27;;;;;;;;;;;21.00;99.90;;;;;;5077513;28;19935;-73
2022/05/27 10:20:12;;;;;;;;;;;21.00;99.90;;;;;;5057813;28;19912;-73
2022/05/27 10:22:41;;;;;;;;;;;21.00;99.90;;;;;;5084155;28;19991;-75
2022/05/27 10:25:11;;;;;;;;;;;21.10;99.90;;;;;;5080482;28;19909;-76
2022/05/27 10:27:38;;;;;;;;;;;21.00;99.90;;;;;;5088194;28;19915;-76
2022/05/27 10:30:22;;;;;;;;;;;20.90;99.90;;;;;;5077177;28;20011;-75
2022/05/27 10:32:54;;;;;;;;;;;20.90;99.90;;;;;;5070792;28;19918;-78
2022/05/27 10:35:35;;;;;;;;;;;21.00;99.90;;;;;;5066311;28;19913;-83
2022/05/27 10:41:04;;;;;;;;;;;21.50;99.90;;;;;;5088910;28;19947;-82
2022/05/27 10:43:39;;;;;;;;;;;21.60;99.90;;;;;;5077975;28;19920;-83
2022/05/27 10:46:21;;;;;;;;;;;21.70;99.90;;;;;;5088148;28;19915;-83
2022/05/27 10:48:47;;;;;;;;;;;21.70;99.90;;;;;;5091170;28;19916;-75
2022/05/27 10:51:15;;;;;;;;;;;21.60;99.90;;;;;;5088667;28;19908;-74
2022/05/27 10:53:52;;;;;;;;;;;21.50;99.90;;;;;;5077812;28;19916;-74
2022/05/27 10:56:38;;;;;;;;;;;21.80;99.90;;;;;;5079440;28;19917;-75
2022/05/27 11:02:45;;;;;;;;;;;22.40;99.90;;;;;;5072728;28;19953;-77
2022/05/27 11:05:23;;;;;;;;;;;22.70;99.90;;;;;;5041193;28;20291;-78
2022/05/27 11:08:01;;;;;;;;;;;22.90;99.90;;;;;;5039746;28;19944;-78
2022/05/27 11:10:35;;;;;;;;;;;22.80;99.90;;;;;;5017701;28;19963;-77
2022/05/27 11:16:19;;;;;;;;;;;21.80;99.90;;;;;;5047881;28;20522;-76
2022/05/27 11:19:05;;;;;;;;;;;22.10;99.90;;;;;;5046535;28;20395;-81
2022/05/27 11:21:47;;;;;;;;;;;21.90;99.90;;;;;;5042148;28;19908;-77
2022/05/27 11:24:24;;;;;;;;;;;22.10;99.90;;;;;;5040606;28;19909;-75
2022/05/27 11:27:13;;;;;;;;;;;21.90;99.90;;;;;;5043009;28;19952;-76
2022/05/27 11:29:57;;;;;;;;;;;21.50;99.90;;;;;;5041965;28;19940;-75
2022/05/27 11:32:35;;;;;;;;;;;21.50;99.90;;;;;;5037095;28;19909;-75
2022/05/27 11:35:07;;;;;;;;;;;21.20;99.90;;;;;;5037236;28;19915;-75
2022/05/27 11:37:55;;;;;;;;;;;21.20;99.90;;;;;;5088085;28;20347;-76
2022/05/27 11:40:23;;;;;;;;;;;21.10;99.90;;;;;;5082600;28;19920;-76
2022/05/27 11:42:49;;;;;;;;;;;20.90;99.90;;;;;;5086707;28;20339;-75
2022/05/27 11:45:29;;;;;;;;;;;20.70;99.90;;;;;;5092081;28;19988;-77
2022/05/27 11:47:55;;;;;;;;;;;20.40;99.90;;;;;;5084444;28;20343;-75
2022/05/27 11:50:39;;;;;;;;;;;20.00;99.90;;;;;;5089803;28;19908;-75
2022/05/27 11:53:25;;;;;;;;;;;19.70;99.90;;;;;;5076280;28;19909;-74
2022/05/27 11:55:57;;;;;;;;;;;19.50;99.90;;;;;;5085696;28;19913;-76
2022/05/27 11:58:35;;;;;;;;;;;19.40;99.90;;;;;;5079276;28;19944;-77
2022/05/27 12:01:01;;;;;;;;;;;19.20;99.90;;;;;;5095796;28;19908;-76
2022/05/27 12:03:47;;;;;;;;;;;19.00;99.90;;;;;;5081906;28;20344;-76
2022/05/27 12:06:47;;;;;;;;;;;18.60;99.90;;;;;;5082731;28;19909;-88
2022/05/27 12:09:47;;;;;;;;;;;18.40;99.90;;;;;;5081339;28;19983;-85
2022/05/27 12:12:22;;;;;;;;;;;18.00;99.90;;;;;;5078493;28;20279;-84
2022/05/27 12:15:09;;;;;;;;;;;17.80;99.90;;;;;;5082306;28;19967;-84
2022/05/27 12:17:43;;;;;;;;;;;17.70;99.90;;;;;;5081985;28;19958;-84
2022/05/27 12:20:10;;;;;;;;;;;17.70;99.90;;;;;;5087683;28;19916;-83
2022/05/27 12:22:36;;;;;;;;;;;17.90;99.90;;;;;;5088710;28;20356;-84
2022/05/27 12:25:07;;;;;;;;;;;18.10;99.90;;;;;;5066998;28;19961;-83
2022/05/27 12:27:49;;;;;;;;;;;18.50;99.90;;;;;;5082113;28;19909;-84
2022/05/27 12:30:23;;;;;;;;;;;18.90;99.90;;;;;;5075541;28;19917;-84
2022/05/27 12:33:05;;;;;;;;;;;19.10;99.90;;;;;;5068948;28;19912;-85
2022/05/27 12:35:31;;;;;;;;;;;19.60;99.90;;;;;;5081882;28;20271;-73
2022/05/27 12:38:05;;;;;;;;;;;19.80;99.90;;;;;;5084722;28;19913;-73
2022/05/27 12:40:49;;;;;;;;;;;20.00;99.90;;;;;;5078363;28;19912;-72
2022/05/27 12:43:16;;;;;;;;;;;20.00;99.90;;;;;;5081205;28;20366;-72
2022/05/27 12:45:52;;;;;;;;;;;20.20;99.90;;;;;;5070528;28;19944;-72
2022/05/27 12:48:26;;;;;;;;;;;20.40;99.90;;;;;;5087717;28;20011;-72
2022/05/27 12:51:02;;;;;;;;;;;20.50;99.90;;;;;;5071848;28;19962;-74
2022/05/27 12:53:44;;;;;;;;;;;20.70;99.90;;;;;;5077958;28;20000;-73
2022/05/27 13:02:21;;;;;;;;;;;20.70;99.90;;;;;;5073529;28;20427;-72
2022/05/27 13:04:47;;;;;;;;;;;20.90;99.90;;;;;;5075920;28;19999;-72
2022/05/27 13:07:38;;;;;;;;;;;21.00;99.90;;;;;;5074440;28;19908;-72
2022/05/27 13:10:17;;;;;;;;;;;21.30;99.90;;;;;;5045250;28;20406;-72
2022/05/27 13:12:50;;;;;;;;;;;21.50;99.90;;;;;;5081590;28;19978;-72
2022/05/27 13:15:32;;;;;;;;;;;21.70;99.90;;;;;;5083344;28;19908;-72
2022/05/27 13:17:59;;;;;;;;;;;21.60;99.90;;;;;;5074100;28;19917;-72
2022/05/27 13:20:38;;;;;;;;;;;21.30;99.90;;;;;;5087368;28;20305;-72
2022/05/27 13:23:11;;;;;;;;;;;21.20;99.90;;;;;;5064665;28;19915;-72
2022/05/27 13:25:45;;;;;;;;;;;21.30;99.90;;;;;;5080579;28;19919;-72
2022/05/27 13:28:22;;;;;;;;;;;21.30;99.90;;;;;;5094422;28;19912;-72
2022/05/27 13:31:07;;;;;;;;;;;21.10;99.90;;;;;;5093959;28;20129;-72
2022/05/27 13:33:56;;;;;;;;;;;21.10;99.90;;;;;;5093998;28;19908;-72
2022/05/27 13:36:24;;;;;;;;;;;21.10;99.90;;;;;;5082891;28;19909;-71
2022/05/27 13:39:10;;;;;;;;;;;21.10;99.90;;;;;;5075188;28;19919;-72
2022/05/27 13:41:40;;;;;;;;;;;21.10;99.90;;;;;;5088012;28;19916;-72
2022/05/27 13:44:06;;;;;;;;;;;21.30;99.90;;;;;;5087093;28;19917;-72
2022/05/27 13:46:35;;;;;;;;;;;21.60;99.90;;;;;;5073999;28;19909;-70
2022/05/27 13:49:13;;;;;;;;;;;21.70;99.90;;;;;;5070564;28;19908;-78
2022/05/27 13:51:39;;;;;;;;;;;21.60;99.90;;;;;;5080314;28;19916;-84
2022/05/27 13:54:19;;;;;;;;;;;21.70;99.90;;;;;;5084331;28;19908;-86
2022/05/27 13:57:12;;;;;;;;;;;21.90;99.90;;;;;;5092089;28;20317;-85
2022/05/27 13:59:48;;;;;;;;;;;21.80;99.90;;;;;;5078355;28;20014;-84
2022/05/27 14:02:34;;;;;;;;;;;22.00;99.90;;;;;;5074387;28;20008;-85
2022/05/27 14:05:30;;;;;;;;;;;22.30;99.90;;;;;;5073996;28;19909;-85
2022/05/27 14:08:03;;;;;;;;;;;22.40;99.90;;;;;;5087702;28;19942;-85
2022/05/27 14:10:47;;;;;;;;;;;22.40;99.90;;;;;;5062638;28;20351;-86
2022/05/27 14:13:41;;;;;;;;;;;22.50;99.90;;;;;;5081811;28;20003;-85
2022/05/27 14:16:38;;;;;;;;;;;22.60;99.90;;;;;;5082948;28;19934;-78
2022/05/27 14:19:23;;;;;;;;;;;22.80;99.90;;;;;;5031401;28;20339;-75
2022/05/27 14:24:42;;;;;;;;;;;23.20;99.90;;;;;;5051521;28;19916;-71
2022/05/27 14:27:18;;;;;;;;;;;23.50;99.90;;;;;;5050808;28;19963;-71
2022/05/27 14:29:44;;;;;;;;;;;23.50;99.90;;;;;;5018931;28;19921;-71
2022/05/27 14:32:15;;;;;;;;;;;23.40;99.90;;;;;;5029392;28;19916;-71
2022/05/27 14:34:42;;;;;;;;;;;23.60;99.90;;;;;;5014516;28;19909;-71
2022/05/27 14:37:17;;;;;;;;;;;23.70;99.90;;;;;;5040193;28;19917;-76
2022/05/27 14:39:43;;;;;;;;;;;23.60;99.90;;;;;;5051013;28;20010;-75
2022/05/27 14:42:09;;;;;;;;;;;23.60;99.90;;;;;;5040949;28;19920;-76
2022/05/27 14:44:42;;;;;;;;;;;23.20;99.90;;;;;;5031525;28;19925;-75
2022/05/27 14:47:11;;;;;;;;;;;22.90;99.90;;;;;;5041303;28;19932;-75
2022/05/27 14:49:51;;;;;;;;;;;22.80;99.90;;;;;;5036970;28;19909;-87
2022/05/27 14:52:41;;;;;;;;;;;22.40;99.90;;;;;;5035554;28;19916;-78
2022/05/27 14:55:15;;;;;;;;;;;22.10;99.90;;;;;;5054275;28;19912;-77
2022/05/27 14:58:08;;;;;;;;;;;21.90;99.90;;;;;;5097016;28;20363;-79
2022/05/27 15:00:36;;;;;;;;;;;21.80;99.90;;;;;;5044570;28;19917;-79
2022/05/27 15:06:14;;;;;;;;;;;22.20;99.90;;;;;;5040329;28;19916;-77
2022/05/27 15:09:08;;;;;;;;;;;22.60;99.90;;;;;;5054864;28;19912;-79
2022/05/27 15:11:35;;;;;;;;;;;23.10;99.90;;;;;;5005513;28;19926;-77
2022/05/27 15:14:26;;;;;;;;;;;24.60;99.90;;;;;;5014509;28;19925;-77
2022/05/27 15:17:18;;;;;;;;;;;26.10;99.90;;;;;;4965566;28;19911;-78
2022/05/27 15:19:45;;;;;;;;;;;28.60;99.90;;;;;;4963425;28;20457;-78
2022/05/27 15:22:13;;;;;;;;;;;29.70;99.90;;;;;;4975645;28;19924;-78
2022/05/27 15:24:48;;;;;;;;;;;31.70;99.90;;;;;;4975468;28;19914;-78
2022/05/27 15:33:16;;;;;;;;;;;32.40;99.90;;;;;;4974869;28;19925;-79
2022/05/27 15:35:44;;;;;;;;;;;32.00;99.90;;;;;;4975085;28;20445;-80
2022/05/27 15:38:14;;;;;;;;;;;30.70;99.90;;;;;;4971694;28;19914;-77
2022/05/27 15:40:41;;;;;;;;;;;30.40;99.90;;;;;;4973233;28;19914;-76
2022/05/27 15:43:20;;;;;;;;;;;28.90;99.90;;;;;;4975002;28;20057;-77
2022/05/27 15:45:54;;;;;;;;;;;28.10;99.90;;;;;;4975192;28;19993;-78
2022/05/27 15:48:41;;;;;;;;;;;26.80;99.90;;;;;;4994465;28;19913;-78
2022/05/27 15:51:12;;;;;;;;;;;26.80;99.90;;;;;;5031843;28;19910;-77
2022/05/27 15:53:59;;;;;;;;;;;26.40;99.90;;;;;;5038264;28;19909;-83
2022/05/27 15:59:28;;;;;;;;;;;25.70;99.90;;;;;;5075654;28;19927;-85
2022/05/27 16:01:54;;;;;;;;;;;25.50;99.90;;;;;;5071359;28;19908;-85
2022/05/27 16:04:24;;;;;;;;;;;26.90;99.90;;;;;;5075353;28;19944;-85
2022/05/27 16:07:17;;;;;;;;;;;28.50;99.90;;;;;;5083946;28;20343;-85
2022/05/27 16:09:48;;;;;;;;;;;29.60;99.90;;;;;;5075784;28;19909;-79
2022/05/27 16:12:18;;;;;;;;;;;30.90;99.90;;;;;;5075425;28;19916;-78
2022/05/27 16:14:43;;;;;;;;;;;32.20;99.90;;;;;;5088732;28;19908;-79
2022/05/27 16:20:00;;;;;;;;;;;33.40;99.90;;;;;;5073731;28;19923;-80
2022/05/27 16:22:26;;;;;;;;;;;35.10;99.90;;;;;;5077980;28;19909;-80
2022/05/27 16:24:52;;;;;;;;;;;34.60;99.90;;;;;;5074954;28;19908;-78
2022/05/27 16:27:17;;;;;;;;;;;33.10;99.90;;;;;;5088602;28;20360;-76
2022/05/27 16:29:48;;;;;;;;;;;31.20;99.90;;;;;;5092560;28;19958;-75
2022/05/27 16:32:48;;;;;;;;;;;30.10;99.90;;;;;;5079316;28;20334;-79